Time;durP1;ratioP1;P1;durP2;ratioP2;P2;SDS_P1;SDS_P2;PMS_P1;PMS_P2;Temp;Humidity;BMP_temperature;BMP_pressure;BME280_temperature;BME280_humidity;BME280_pressure;Samples;Min_cycle;Max_cycle;Signal;HPM_P1;HPM_P2
2022/07/28 00:00:41;;;;;;;;;;;;;;;20.93;50.62;101735.94;1032485;28;674;-71
2022/07/28 00:01:31;;;;;;;;;;;;;;;20.96;50.45;101741.06;1033501;28;630;-72
2022/07/28 00:02:22;;;;;;;;;;;;;;;20.96;50.19;101747.31;1032038;28;1416;-72
2022/07/28 00:03:12;;;;;;;;;;;;;;;20.98;50.05;101747.16;1032139;28;1898;-72
2022/07/28 00:04:02;;;;;;;;;;;;;;;20.96;50.51;101749.19;1028951;28;1559;-72
2022/07/28 00:04:53;;;;;;;;;;;;;;;20.93;50.55;101746.75;1025931;28;702;-72
2022/07/28 00:05:43;;;;;;;;;;;;;;;20.92;50.29;101751.34;1029893;28;706;-72
2022/07/28 00:06:34;;;;;;;;;;;;;;;20.91;50.42;101754.19;1034122;28;661;-73
2022/07/28 00:07:25;;;;;;;;;;;;;;;20.93;50.55;101746.75;1034495;28;749;-73
2022/07/28 00:08:16;;;;;;;;;;;;;;;20.92;50.60;101748.63;1033109;28;642;-73
2022/07/28 00:09:06;;;;;;;;;;;;;;;20.93;50.33;101747.63;1029126;28;660;-72
2022/07/28 00:09:56;;;;;;;;;;;;;;;20.94;50.47;101754.75;1028906;28;1143;-72
2022/07/28 00:10:47;;;;;;;;;;;;;;;20.91;50.68;101744.19;1036910;28;658;-73
2022/07/28 00:11:37;;;;;;;;;;;;;;;20.92;50.27;101751.34;1036875;28;587;-73
2022/07/28 00:12:28;;;;;;;;;;;;;;;20.89;50.33;101740.78;1037108;28;690;-72
2022/07/28 00:13:18;;;;;;;;;;;;;;;20.90;50.47;101742.47;1037145;28;646;-72
2022/07/28 00:14:09;;;;;;;;;;;;;;;20.89;50.88;101740.78;1036567;28;666;-72
2022/07/28 00:15:00;;;;;;;;;;;;;;;20.89;50.27;101742.63;1037724;28;678;-73
2022/07/28 00:15:50;;;;;;;;;;;;;;;20.93;50.42;101744.91;1037294;28;1367;-73
2022/07/28 00:16:41;;;;;;;;;;;;;;;20.92;50.62;101745.91;1037882;28;582;-73
2022/07/28 00:17:31;;;;;;;;;;;;;;;20.91;50.35;101744.19;1037656;28;1570;-72
2022/07/28 00:18:22;;;;;;;;;;;;;;;20.90;50.50;101736.22;1037722;28;647;-73
2022/07/28 00:19:12;;;;;;;;;;;;;;;20.92;50.63;101739.63;1037712;28;657;-73
2022/07/28 00:20:03;;;;;;;;;;;;;;;20.91;50.51;101741.50;1037752;28;655;-73
2022/07/28 00:20:54;;;;;;;;;;;;;;;20.89;50.31;101738.06;1036921;28;643;-73
2022/07/28 00:21:44;;;;;;;;;;;;;;;20.94;50.34;101737.63;1037288;28;682;-73
2022/07/28 00:22:35;;;;;;;;;;;;;;;20.92;50.42;101737.78;1037805;28;638;-72
2022/07/28 00:23:25;;;;;;;;;;;;;;;20.92;50.40;101735.06;1037578;28;1963;-73
2022/07/28 00:24:15;;;;;;;;;;;;;;;20.89;50.62;101746.19;1036979;28;633;-72
2022/07/28 00:25:06;;;;;;;;;;;;;;;20.91;50.62;101738.78;1036727;28;666;-72
2022/07/28 00:25:56;;;;;;;;;;;;;;;20.91;50.16;101741.50;1037303;28;757;-71
2022/07/28 00:26:47;;;;;;;;;;;;;;;20.91;50.56;101738.78;1037697;28;686;-72
2022/07/28 00:27:37;;;;;;;;;;;;;;;20.95;50.12;101736.63;1037150;28;1616;-72
2022/07/28 00:28:28;;;;;;;;;;;;;;;20.94;50.29;101738.50;1036629;28;650;-72
2022/07/28 00:29:18;;;;;;;;;;;;;;;20.92;50.41;101740.50;1036600;28;653;-72
2022/07/28 00:30:09;;;;;;;;;;;;;;;20.91;50.57;101737.91;1036628;28;674;-73
2022/07/28 00:30:59;;;;;;;;;;;;;;;20.88;50.45;101739.06;1037603;28;645;-72
2022/07/28 00:31:49;;;;;;;;;;;;;;;20.91;50.47;101738.78;1036627;28;587;-73
2022/07/28 00:32:40;;;;;;;;;;;;;;;20.88;50.55;101736.34;1036643;28;630;-73
2022/07/28 00:33:30;;;;;;;;;;;;;;;20.92;50.55;101732.38;1036518;28;619;-74
2022/07/28 00:34:21;;;;;;;;;;;;;;;20.89;50.42;101735.34;1032840;28;716;-74
2022/07/28 00:35:11;;;;;;;;;;;;;;;20.89;50.58;101735.34;1033230;28;662;-73
2022/07/28 00:36:02;;;;;;;;;;;;;;;20.85;50.43;101730.38;1037076;28;651;-73
2022/07/28 00:36:53;;;;;;;;;;;;;;;20.86;50.83;101740.19;1036511;28;639;-73
2022/07/28 00:37:43;;;;;;;;;;;;;;;20.90;50.04;101730.78;1036711;28;643;-74
2022/07/28 00:38:34;;;;;;;;;;;;;;;20.90;50.49;101737.06;1032728;28;659;-73
2022/07/28 00:39:24;;;;;;;;;;;;;;;20.87;50.52;101726.50;1033188;28;630;-73
2022/07/28 00:40:14;;;;;;;;;;;;;;;20.93;50.50;101744.91;1036516;28;1581;-73
2022/07/28 00:41:11;;;;;;;;;;;;;;;20.94;50.71;101737.63;1036815;28;639;-75
2022/07/28 00:42:01;;;;;;;;;;;;;;;20.90;50.57;101730.78;1032798;28;643;-73
2022/07/28 00:42:52;;;;;;;;;;;;;;;20.88;50.71;101739.06;1037284;28;627;-72
2022/07/28 00:43:42;;;;;;;;;;;;;;;20.89;50.90;101735.34;1037599;28;678;-72
2022/07/28 00:44:33;;;;;;;;;;;;;;;20.92;50.62;101728.78;1037148;28;623;-74
2022/07/28 00:45:23;;;;;;;;;;;;;;;20.90;50.62;101730.78;1037050;28;654;-74
2022/07/28 00:46:14;;;;;;;;;;;;;;;20.89;50.42;101732.66;1037026;28;745;-74
2022/07/28 00:47:04;;;;;;;;;;;;;;;20.88;50.91;101730.94;1037683;28;626;-73
2022/07/28 00:47:55;;;;;;;;;;;;;;;20.87;50.50;101731.94;1037747;28;623;-74
2022/07/28 00:48:45;;;;;;;;;;;;;;;20.82;50.94;101734.22;1036655;28;604;-74
2022/07/28 00:49:36;;;;;;;;;;;;;;;20.84;51.07;101729.50;1037777;28;677;-73
2022/07/28 00:50:26;;;;;;;;;;;;;;;20.84;50.87;101725.94;1036512;28;630;-74
2022/07/28 00:51:17;;;;;;;;;;;;;;;20.86;50.99;101729.38;1033987;28;655;-73
2022/07/28 00:52:10;;;;;;;;;;;;;;;20.82;51.21;101726.09;1034247;28;1652;-74
2022/07/28 00:53:00;;;;;;;;;;;;;;;20.86;50.78;101730.22;1037696;28;599;-73
2022/07/28 00:53:51;;;;;;;;;;;;;;;20.90;50.67;101720.81;1037790;28;654;-74
2022/07/28 00:54:42;;;;;;;;;;;;;;;20.89;50.91;101724.50;1036887;28;634;-74
2022/07/28 00:55:32;;;;;;;;;;;;;;;20.88;50.84;101725.50;1032901;28;638;-73
2022/07/28 00:56:22;;;;;;;;;;;;;;;20.90;50.55;101720.81;1036667;28;634;-74
2022/07/28 00:57:13;;;;;;;;;;;;;;;20.90;50.73;101723.50;1037751;28;614;-74
2022/07/28 00:58:03;;;;;;;;;;;;;;;20.88;50.78;101717.38;1037642;28;642;-73
2022/07/28 00:58:54;;;;;;;;;;;;;;;20.87;51.10;101710.25;1037814;28;626;-73
2022/07/28 00:59:44;;;;;;;;;;;;;;;20.82;50.87;101714.38;1036188;28;678;-74
2022/07/28 01:00:35;;;;;;;;;;;;;;;20.87;50.91;101715.69;1033076;28;613;-72
2022/07/28 01:01:25;;;;;;;;;;;;;;;20.83;50.69;101722.38;1036889;28;635;-75
2022/07/28 01:02:16;;;;;;;;;;;;;;;20.80;51.16;101718.09;1037502;28;666;-72
2022/07/28 01:03:06;;;;;;;;;;;;;;;20.83;51.03;101718.81;1037816;28;1957;-73
2022/07/28 01:03:56;;;;;;;;;;;;;;;20.79;50.72;101724.50;1036240;28;1597;-73
2022/07/28 01:04:47;;;;;;;;;;;;;;;20.81;50.91;101718.94;1036523;28;674;-73
2022/07/28 01:05:37;;;;;;;;;;;;;;;20.83;50.91;101714.25;1036802;28;654;-73
2022/07/28 01:06:28;;;;;;;;;;;;;;;20.81;50.74;101721.66;1037530;28;622;-72
2022/07/28 01:07:19;;;;;;;;;;;;;;;20.77;51.23;101714.84;1036464;28;883;-73
2022/07/28 01:08:09;;;;;;;;;;;;;;;20.80;51.10;101709.13;1037942;28;634;-72
2022/07/28 01:09:00;;;;;;;;;;;;;;;20.79;51.13;101712.81;1036501;28;673;-72
2022/07/28 01:09:50;;;;;;;;;;;;;;;20.82;51.01;101723.38;1032671;28;693;-72
2022/07/28 01:10:41;;;;;;;;;;;;;;;20.80;50.87;101714.53;1032831;28;685;-72
2022/07/28 01:11:31;;;;;;;;;;;;;;;20.81;51.16;101713.53;1036910;28;717;-72
2022/07/28 01:12:22;;;;;;;;;;;;;;;20.74;51.19;101715.13;1036859;28;634;-73
2022/07/28 01:13:12;;;;;;;;;;;;;;;20.78;50.94;101711.13;1036694;28;922;-73
2022/07/28 01:14:06;;;;;;;;;;;;;;;20.76;51.10;101713.13;1037615;28;657;-73
2022/07/28 01:14:56;;;;;;;;;;;;;;;20.76;51.37;101714.00;1037920;28;641;-73
2022/07/28 01:15:47;;;;;;;;;;;;;;;20.74;51.28;101717.84;1036338;28;1656;-74
2022/07/28 01:16:37;;;;;;;;;;;;;;;20.77;51.06;101721.13;1037462;28;615;-71
2022/07/28 01:17:28;;;;;;;;;;;;;;;20.73;51.00;101713.41;1037878;28;713;-73
2022/07/28 01:18:18;;;;;;;;;;;;;;;20.72;51.35;101719.84;1036835;28;650;-73
2022/07/28 01:19:09;;;;;;;;;;;;;;;20.71;51.33;101720.84;1035838;28;749;-74
2022/07/28 01:19:59;;;;;;;;;;;;;;;20.73;51.44;101713.41;1037968;28;618;-74
2022/07/28 01:20:49;;;;;;;;;;;;;;;20.77;51.02;101706.72;1037250;28;619;-73
2022/07/28 01:21:40;;;;;;;;;;;;;;;20.79;51.34;101712.81;1036691;28;619;-72
2022/07/28 01:22:30;;;;;;;;;;;;;;;20.77;51.51;101715.69;1033044;28;669;-72
2022/07/28 01:23:21;;;;;;;;;;;;;;;20.74;51.55;101712.41;1032580;28;1910;-72
2022/07/28 01:24:11;;;;;;;;;;;;;;;20.73;51.09;101710.72;1036738;28;682;-73
2022/07/28 01:25:01;;;;;;;;;;;;;;;20.74;51.20;101712.41;1032959;28;622;-73
2022/07/28 01:25:52;;;;;;;;;;;;;;;20.78;50.97;101719.28;1032759;28;674;-73
2022/07/28 01:26:42;;;;;;;;;;;;;;;20.72;51.26;101707.16;1036579;28;689;-74
2022/07/28 01:27:33;;;;;;;;;;;;;;;20.72;51.12;101712.56;1037563;28;677;-73
2022/07/28 01:28:23;;;;;;;;;;;;;;;20.71;51.25;101710.84;1036722;28;1584;-72
2022/07/28 01:29:14;;;;;;;;;;;;;;;20.69;51.13;101707.44;1036651;28;635;-73
2022/07/28 01:30:04;;;;;;;;;;;;;;;20.69;51.31;101712.00;1036548;28;746;-72
2022/07/28 01:30:54;;;;;;;;;;;;;;;20.68;51.51;101710.28;1036446;28;654;-72
2022/07/28 01:31:45;;;;;;;;;;;;;;;20.68;51.62;101716.56;1036960;28;733;-72
2022/07/28 01:32:36;;;;;;;;;;;;;;;20.69;51.57;101712.00;1036365;28;626;-72
2022/07/28 01:33:26;;;;;;;;;;;;;;;20.70;51.32;101711.00;1032609;28;658;-73
2022/07/28 01:34:16;;;;;;;;;;;;;;;20.67;51.17;101703.16;1034099;28;626;-74
2022/07/28 01:35:07;;;;;;;;;;;;;;;20.68;51.38;101702.16;1037041;28;618;-72
2022/07/28 01:35:57;;;;;;;;;;;;;;;20.69;51.41;101699.31;1036622;28;641;-72
2022/07/28 01:36:48;;;;;;;;;;;;;;;20.70;51.39;101705.56;1033149;28;639;-72
2022/07/28 01:37:38;;;;;;;;;;;;;;;20.63;51.28;101701.72;1032334;28;693;-73
2022/07/28 01:38:29;;;;;;;;;;;;;;;20.63;51.51;101697.16;1033828;28;646;-73
2022/07/28 01:39:19;;;;;;;;;;;;;;;20.64;51.51;101696.16;1033499;28;624;-72
2022/07/28 01:40:09;;;;;;;;;;;;;;;20.69;51.27;101695.72;1032039;28;655;-72
2022/07/28 01:41:00;;;;;;;;;;;;;;;20.68;51.17;101694.88;1032830;28;626;-72
2022/07/28 01:41:50;;;;;;;;;;;;;;;20.66;51.09;101690.59;1029815;28;661;-72
2022/07/28 01:42:41;;;;;;;;;;;;;;;20.65;51.51;101687.03;1033490;28;638;-72
2022/07/28 01:43:31;;;;;;;;;;;;;;;20.67;51.17;101686.91;1032560;28;1882;-71
2022/07/28 01:44:22;;;;;;;;;;;;;;;20.69;51.35;101685.75;1033419;28;674;-72
2022/07/28 01:45:12;;;;;;;;;;;;;;;20.69;51.70;101682.19;1032614;28;667;-72
2022/07/28 01:46:03;;;;;;;;;;;;;;;20.65;51.77;101691.59;1032494;28;650;-72
2022/07/28 01:46:53;;;;;;;;;;;;;;;20.64;51.36;101681.75;1033510;28;631;-72
2022/07/28 01:47:44;;;;;;;;;;;;;;;20.64;51.83;101682.63;1032975;28;942;-73
2022/07/28 01:48:34;;;;;;;;;;;;;;;20.65;51.93;101688.88;1033354;28;626;-73
2022/07/28 01:49:25;;;;;;;;;;;;;;;20.64;51.24;101684.47;1032817;28;666;-73
2022/07/28 01:50:15;;;;;;;;;;;;;;;20.65;51.43;101686.19;1033009;28;721;-71
2022/07/28 01:51:06;;;;;;;;;;;;;;;20.63;51.48;101683.63;1036152;28;1248;-73
2022/07/28 01:51:56;;;;;;;;;;;;;;;20.62;51.48;101675.63;1036558;28;722;-72
2022/07/28 01:52:46;;;;;;;;;;;;;;;20.60;51.59;101677.66;1036474;28;698;-73
2022/07/28 01:53:37;;;;;;;;;;;;;;;20.62;51.75;101675.63;1033148;28;642;-73
2022/07/28 01:54:27;;;;;;;;;;;;;;;20.61;51.21;101676.63;1032570;28;666;-72
2022/07/28 01:55:19;;;;;;;;;;;;;;;20.61;51.25;101677.47;1033046;28;681;-72
2022/07/28 01:56:09;;;;;;;;;;;;;;;20.62;51.39;101679.19;1033410;28;679;-73
2022/07/28 01:57:00;;;;;;;;;;;;;;;20.62;51.27;101681.06;1033120;28;666;-73
2022/07/28 01:57:50;;;;;;;;;;;;;;;20.59;51.48;101674.09;1033555;28;646;-74
2022/07/28 01:58:41;;;;;;;;;;;;;;;20.60;51.43;101680.38;1032807;28;620;-73
2022/07/28 01:59:31;;;;;;;;;;;;;;;20.61;51.50;101682.03;1029407;28;721;-72
2022/07/28 02:00:22;;;;;;;;;;;;;;;20.60;51.71;101678.47;1029046;28;638;-73
2022/07/28 02:01:12;;;;;;;;;;;;;;;20.58;51.68;101680.50;1032561;28;698;-72
2022/07/28 02:02:02;;;;;;;;;;;;;;;20.57;51.18;101678.78;1032966;28;705;-73
2022/07/28 02:02:53;;;;;;;;;;;;;;;20.58;51.36;101683.22;1032805;28;631;-72
2022/07/28 02:03:43;;;;;;;;;;;;;;;20.55;51.34;101674.53;1034214;28;606;-73
2022/07/28 02:04:34;;;;;;;;;;;;;;;20.56;51.70;101679.78;1034406;28;658;-72
2022/07/28 02:05:24;;;;;;;;;;;;;;;20.54;52.00;101675.53;1034143;28;600;-74
2022/07/28 02:06:15;;;;;;;;;;;;;;;20.56;51.78;101678.94;1034216;28;623;-73
2022/07/28 02:07:05;;;;;;;;;;;;;;;20.57;51.55;101677.94;1034688;28;650;-73
2022/07/28 02:07:55;;;;;;;;;;;;;;;20.59;51.49;101678.66;1034323;28;629;-73
2022/07/28 02:08:46;;;;;;;;;;;;;;;20.60;51.71;101683.06;1034431;28;646;-73
2022/07/28 02:09:36;;;;;;;;;;;;;;;20.60;51.68;101680.38;1034085;28;579;-73
2022/07/28 02:10:27;;;;;;;;;;;;;;;20.60;51.23;101677.66;1030407;28;650;-73
2022/07/28 02:12:26;;;;;;;;;;;;;;;20.60;51.44;101683.06;1033490;28;654;-73
2022/07/28 02:13:17;;;;;;;;;;;;;;;20.57;51.62;101677.94;1033133;28;640;-72
2022/07/28 02:14:07;;;;;;;;;;;;;;;20.59;51.23;101678.66;1033182;28;777;-72
2022/07/28 02:14:58;;;;;;;;;;;;;;;20.59;51.22;101676.81;1033087;28;666;-74
2022/07/28 02:15:48;;;;;;;;;;;;;;;20.62;51.38;101678.34;1033518;28;627;-72
2022/07/28 02:16:40;;;;;;;;;;;;;;;20.63;51.53;101674.63;1033772;28;611;-73
2022/07/28 02:17:30;;;;;;;;;;;;;;;20.58;51.48;101683.22;1033720;28;635;-73
2022/07/28 02:18:21;;;;;;;;;;;;;;;20.55;51.59;101671.81;1033016;28;596;-73
2022/07/28 02:19:11;;;;;;;;;;;;;;;20.54;51.20;101672.81;1033883;28;801;-72
2022/07/28 02:20:02;;;;;;;;;;;;;;;20.55;51.47;101677.22;1033569;28;658;-73
2022/07/28 02:20:52;;;;;;;;;;;;;;;20.56;51.64;101678.94;1036423;28;1621;-73
2022/07/28 02:21:42;;;;;;;;;;;;;;;20.53;51.75;101677.38;1038531;28;674;-72
2022/07/28 02:22:33;;;;;;;;;;;;;;;20.55;51.73;101666.41;1037973;28;1670;-73
2022/07/28 02:23:24;;;;;;;;;;;;;;;20.54;51.21;101675.53;1036912;28;1910;-73
2022/07/28 02:24:14;;;;;;;;;;;;;;;20.55;51.87;101677.22;1038283;28;690;-73
2022/07/28 02:25:04;;;;;;;;;;;;;;;20.58;51.29;101671.53;1037394;28;623;-73
2022/07/28 02:25:55;;;;;;;;;;;;;;;20.57;51.70;101672.53;1036601;28;631;-74
2022/07/28 02:26:46;;;;;;;;;;;;;;;20.54;51.53;101670.94;1038554;28;670;-74
2022/07/28 02:27:36;;;;;;;;;;;;;;;20.56;51.42;101673.53;1037028;28;667;-73
2022/07/28 02:28:27;;;;;;;;;;;;;;;20.58;51.36;101674.22;1038885;28;703;-73
2022/07/28 02:29:17;;;;;;;;;;;;;;;20.59;51.04;101676.81;1038379;28;634;-73
2022/07/28 02:30:07;;;;;;;;;;;;;;;20.56;51.73;101673.53;1038020;28;623;-74
2022/07/28 02:30:58;;;;;;;;;;;;;;;20.54;51.47;101672.81;1038472;28;626;-74
2022/07/28 02:31:50;;;;;;;;;;;;;;;20.53;51.28;101668.38;1037297;28;662;-74
2022/07/28 02:32:40;;;;;;;;;;;;;;;20.52;51.56;101672.09;1037078;28;686;-73
2022/07/28 02:33:31;;;;;;;;;;;;;;;20.54;51.38;101670.09;1034276;28;627;-73
2022/07/28 02:34:21;;;;;;;;;;;;;;;20.51;51.21;101667.66;1033596;28;634;-73
2022/07/28 02:35:12;;;;;;;;;;;;;;;20.50;51.28;101665.97;1033589;28;596;-72
2022/07/28 02:36:02;;;;;;;;;;;;;;;20.48;51.09;101666.09;1030136;28;752;-72
2022/07/28 02:36:53;;;;;;;;;;;;;;;20.54;51.61;101656.56;1030409;28;582;-72
2022/07/28 02:37:44;;;;;;;;;;;;;;;20.52;51.55;101661.25;1032903;28;687;-72
2022/07/28 02:38:34;;;;;;;;;;;;;;;20.52;51.40;101655.84;1033795;28;678;-72
2022/07/28 02:39:24;;;;;;;;;;;;;;;20.49;51.57;101656.13;1030469;28;607;-72
2022/07/28 02:40:15;;;;;;;;;;;;;;;20.47;51.49;101656.28;1028928;28;631;-72
2022/07/28 02:41:05;;;;;;;;;;;;;;;20.51;51.40;101659.56;1033753;28;647;-73
2022/07/28 02:41:56;;;;;;;;;;;;;;;20.55;51.65;101660.97;1034134;28;619;-73
2022/07/28 02:42:46;;;;;;;;;;;;;;;20.53;51.29;101668.38;1034579;28;749;-73
2022/07/28 02:43:37;;;;;;;;;;;;;;;20.50;51.27;101663.25;1034032;28;655;-73
2022/07/28 02:44:27;;;;;;;;;;;;;;;20.51;51.74;101668.53;1033444;28;654;-73
2022/07/28 02:45:18;;;;;;;;;;;;;;;20.52;51.68;101663.97;1037752;28;1623;-73
2022/07/28 02:46:08;;;;;;;;;;;;;;;20.50;51.27;101657.84;1033205;28;686;-73
2022/07/28 02:46:58;;;;;;;;;;;;;;;20.50;51.62;101664.09;1034163;28;662;-73
2022/07/28 02:47:49;;;;;;;;;;;;;;;20.50;51.74;101658.69;1037586;28;693;-72
2022/07/28 02:48:39;;;;;;;;;;;;;;;20.45;51.36;101664.53;1036937;28;702;-73
2022/07/28 02:49:30;;;;;;;;;;;;;;;20.46;51.29;101662.69;1036543;28;713;-72
2022/07/28 02:50:20;;;;;;;;;;;;;;;20.46;51.38;101665.38;1037017;28;697;-72
2022/07/28 02:51:11;;;;;;;;;;;;;;;20.49;51.51;101675.09;1036950;28;832;-73
2022/07/28 02:52:01;;;;;;;;;;;;;;;20.49;51.54;101661.53;1037196;28;660;-72
2022/07/28 02:52:51;;;;;;;;;;;;;;;20.49;51.60;101661.53;1037463;28;685;-73
2022/07/28 02:53:42;;;;;;;;;;;;;;;20.51;51.79;101665.81;1033511;28;649;-72
2022/07/28 02:54:32;;;;;;;;;;;;;;;20.52;51.61;101663.97;1033460;28;708;-73
2022/07/28 02:55:23;;;;;;;;;;;;;;;20.45;51.72;101660.97;1030263;28;737;-74
2022/07/28 02:56:13;;;;;;;;;;;;;;;20.46;51.39;101662.69;1034023;28;674;-72
2022/07/28 02:57:04;;;;;;;;;;;;;;;20.47;51.48;101658.97;1036770;28;1736;-72
2022/07/28 02:57:54;;;;;;;;;;;;;;;20.44;51.69;101660.13;1038034;28;607;-72
2022/07/28 02:58:44;;;;;;;;;;;;;;;20.40;51.53;101664.13;1038087;28;812;-72
2022/07/28 02:59:35;;;;;;;;;;;;;;;20.45;51.73;101666.38;1038072;28;606;-73
2022/07/28 03:00:25;;;;;;;;;;;;;;;20.47;51.71;101667.09;1038075;28;591;-72
2022/07/28 03:01:16;;;;;;;;;;;;;;;20.45;51.35;101669.09;1038190;28;618;-72
2022/07/28 03:02:06;;;;;;;;;;;;;;;20.45;51.69;101660.97;1038149;28;685;-71
2022/07/28 03:02:57;;;;;;;;;;;;;;;20.46;51.58;101662.69;1038072;28;619;-71
2022/07/28 03:03:47;;;;;;;;;;;;;;;20.41;51.77;101668.56;1037773;28;661;-71
2022/07/28 03:04:57;;;;;;;;;;;;;;;20.42;51.60;101659.41;1038037;28;698;-72
2022/07/28 03:05:47;;;;;;;;;;;;;;;20.42;51.27;101659.41;1032483;28;726;-71
2022/07/28 03:06:38;;;;;;;;;;;;;;;20.44;51.28;101656.56;1033655;28;683;-71
2022/07/28 03:07:28;;;;;;;;;;;;;;;20.42;51.61;101661.28;1033697;28;690;-71
2022/07/28 03:08:19;;;;;;;;;;;;;;;20.43;51.26;101658.41;1033443;28;631;-72
2022/07/28 03:09:09;;;;;;;;;;;;;;;20.43;51.28;101653.00;1033815;28;630;-72
2022/07/28 03:09:59;;;;;;;;;;;;;;;20.45;51.68;101650.13;1033348;28;1277;-71
2022/07/28 03:10:50;;;;;;;;;;;;;;;20.43;51.30;101655.69;1033941;28;653;-74
2022/07/28 03:11:40;;;;;;;;;;;;;;;20.44;51.79;101657.41;1034322;28;760;-73
2022/07/28 03:12:31;;;;;;;;;;;;;;;20.47;51.63;101650.84;1029166;28;576;-73
2022/07/28 03:13:21;;;;;;;;;;;;;;;20.44;51.16;101665.53;1030116;28;615;-73
2022/07/28 03:14:11;;;;;;;;;;;;;;;20.45;51.68;101655.56;1034754;28;615;-72
2022/07/28 03:15:02;;;;;;;;;;;;;;;20.47;51.02;101658.13;1033398;28;690;-72
2022/07/28 03:15:53;;;;;;;;;;;;;;;20.41;51.40;101663.13;1033455;28;773;-73
2022/07/28 03:16:43;;;;;;;;;;;;;;;20.40;51.69;101663.28;1034190;28;678;-72
2022/07/28 03:17:33;;;;;;;;;;;;;;;20.40;51.29;101665.97;1033852;28;883;-73
2022/07/28 03:18:26;;;;;;;;;;;;;;;20.41;51.26;101665.00;1033935;28;667;-72
2022/07/28 03:19:16;;;;;;;;;;;;;;;20.43;51.21;101662.97;1033474;28;678;-73
2022/07/28 03:20:08;;;;;;;;;;;;;;;20.42;51.39;101667.53;1029079;28;706;-72
2022/07/28 03:20:58;;;;;;;;;;;;;;;20.45;51.70;101664.53;1028794;28;627;-72
2022/07/28 03:21:51;;;;;;;;;;;;;;;20.42;51.18;101664.00;1033225;28;943;-72
2022/07/28 03:22:42;;;;;;;;;;;;;;;20.41;51.13;101668.56;1033357;28;519;-71
2022/07/28 03:23:32;;;;;;;;;;;;;;;20.41;51.45;101665.84;1033970;28;1973;-72
2022/07/28 03:24:23;;;;;;;;;;;;;;;20.40;51.53;101668.69;1034022;28;630;-73
2022/07/28 03:25:13;;;;;;;;;;;;;;;20.41;51.41;101668.56;1029062;28;729;-72
2022/07/28 03:26:03;;;;;;;;;;;;;;;20.39;51.63;101666.97;1029166;28;653;-71
2022/07/28 03:26:54;;;;;;;;;;;;;;;20.40;51.69;101669.53;1034753;28;1720;-72
2022/07/28 03:27:44;;;;;;;;;;;;;;;20.39;51.09;101678.66;1032976;28;710;-73
2022/07/28 03:28:35;;;;;;;;;;;;;;;20.37;51.75;101672.53;1033655;28;595;-73
2022/07/28 03:29:25;;;;;;;;;;;;;;;20.38;51.18;101676.09;1029119;28;642;-73
2022/07/28 03:30:16;;;;;;;;;;;;;;;20.39;51.67;101678.66;1028564;28;635;-73
2022/07/28 03:31:06;;;;;;;;;;;;;;;20.39;51.41;101672.41;1033772;28;658;-73
2022/07/28 03:31:57;;;;;;;;;;;;;;;20.37;51.81;101675.25;1033319;28;910;-72
2022/07/28 03:32:47;;;;;;;;;;;;;;;20.38;51.82;101685.06;1033207;28;634;-71
2022/07/28 03:33:37;;;;;;;;;;;;;;;20.33;51.85;101683.75;1033330;28;687;-73
2022/07/28 03:34:28;;;;;;;;;;;;;;;20.31;51.74;101675.78;1033266;28;599;-71
2022/07/28 03:35:18;;;;;;;;;;;;;;;20.34;51.73;101678.19;1033483;28;622;-72
2022/07/28 03:36:09;;;;;;;;;;;;;;;20.36;51.26;101672.66;1033250;28;588;-72
2022/07/28 03:37:00;;;;;;;;;;;;;;;20.31;51.32;101689.31;1033279;28;615;-72
2022/07/28 03:37:51;;;;;;;;;;;;;;;20.36;51.09;101675.34;1033299;28;689;-72
2022/07/28 03:38:42;;;;;;;;;;;;;;;20.35;51.37;101676.34;1034426;28;1573;-73
2022/07/28 03:39:32;;;;;;;;;;;;;;;20.37;51.55;101682.50;1037872;28;770;-73
2022/07/28 03:40:24;;;;;;;;;;;;;;;20.37;51.39;101674.38;1037502;28;615;-73
2022/07/28 03:41:15;;;;;;;;;;;;;;;20.36;51.43;101678.94;1036712;28;611;-72
2022/07/28 03:42:05;;;;;;;;;;;;;;;20.40;51.54;101684.94;1037795;28;679;-73
2022/07/28 03:42:56;;;;;;;;;;;;;;;20.38;51.41;101684.22;1036784;28;639;-72
2022/07/28 03:43:46;;;;;;;;;;;;;;;20.37;51.41;101686.06;1037376;28;650;-73
2022/07/28 03:44:38;;;;;;;;;;;;;;;20.36;51.62;101678.94;1037252;28;657;-73
2022/07/28 03:45:28;;;;;;;;;;;;;;;20.36;51.53;101683.47;1036736;28;615;-73
2022/07/28 03:46:20;;;;;;;;;;;;;;;20.33;51.20;101684.59;1037337;28;630;-72
2022/07/28 03:47:10;;;;;;;;;;;;;;;20.30;51.69;101684.88;1036220;28;1644;-73
2022/07/28 03:48:01;;;;;;;;;;;;;;;20.26;51.76;101688.88;1036646;28;611;-73
2022/07/28 03:48:51;;;;;;;;;;;;;;;20.28;51.60;101692.28;1036433;28;615;-73
2022/07/28 03:49:42;;;;;;;;;;;;;;;20.29;51.43;101682.31;1033490;28;645;-73
2022/07/28 03:50:32;;;;;;;;;;;;;;;20.32;51.41;101687.47;1033574;28;646;-73
2022/07/28 03:51:24;;;;;;;;;;;;;;;20.33;51.55;101681.03;1037647;28;699;-74
2022/07/28 03:52:14;;;;;;;;;;;;;;;20.28;51.29;101686.03;1036280;28;671;-74
2022/07/28 03:53:07;;;;;;;;;;;;;;;20.26;51.81;101683.44;1032881;28;661;-74
2022/07/28 03:53:58;;;;;;;;;;;;;;;20.28;51.67;101695.00;1033484;28;678;-73
2022/07/28 03:54:48;;;;;;;;;;;;;;;20.26;51.71;101694.28;1036458;28;1267;-73
2022/07/28 03:55:39;;;;;;;;;;;;;;;20.26;51.24;101694.28;1036615;28;656;-72
2022/07/28 03:56:29;;;;;;;;;;;;;;;20.29;52.00;101691.28;1037258;28;682;-72
2022/07/28 03:57:19;;;;;;;;;;;;;;;20.29;51.24;101691.28;1032649;28;1574;-72
2022/07/28 03:58:10;;;;;;;;;;;;;;;20.30;51.19;101693.00;1034566;28;674;-73
2022/07/28 03:59:00;;;;;;;;;;;;;;;20.32;51.48;101699.13;1038303;28;606;-72
2022/07/28 03:59:51;;;;;;;;;;;;;;;20.31;51.29;101692.00;1037213;28;713;-72
2022/07/28 04:00:42;;;;;;;;;;;;;;;20.28;51.36;101697.69;1037559;28;635;-74
2022/07/28 04:01:32;;;;;;;;;;;;;;;20.31;51.24;101692.00;1036485;28;701;-73
2022/07/28 04:02:23;;;;;;;;;;;;;;;20.30;51.34;101693.00;1032917;28;634;-73
2022/07/28 04:03:13;;;;;;;;;;;;;;;20.32;51.58;101699.13;1032185;28;1902;-74
2022/07/28 04:04:03;;;;;;;;;;;;;;;20.32;51.94;101699.13;1036664;28;678;-73
2022/07/28 04:04:54;;;;;;;;;;;;;;;20.32;51.33;101693.72;1037250;28;646;-74
2022/07/28 04:05:44;;;;;;;;;;;;;;;20.32;51.25;101692.88;1037214;28;645;-74
2022/07/28 04:06:35;;;;;;;;;;;;;;;20.29;51.71;101693.16;1037265;28;638;-74
2022/07/28 04:07:25;;;;;;;;;;;;;;;20.28;51.23;101689.59;1037190;28;717;-74
2022/07/28 04:08:16;;;;;;;;;;;;;;;20.27;51.42;101685.16;1037202;28;717;-74
2022/07/28 04:09:06;;;;;;;;;;;;;;;20.28;51.47;101689.59;1036621;28;1641;-74
2022/07/28 04:09:57;;;;;;;;;;;;;;;20.25;51.65;101692.56;1035963;28;1364;-73
2022/07/28 04:10:48;;;;;;;;;;;;;;;20.29;51.40;101682.31;1033628;28;682;-74
2022/07/28 04:11:38;;;;;;;;;;;;;;;20.30;51.65;101693.00;1032808;28;689;-73
2022/07/28 04:12:32;;;;;;;;;;;;;;;20.28;51.61;101681.47;1037777;28;689;-73
2022/07/28 04:13:22;;;;;;;;;;;;;;;20.27;51.81;101684.31;1036678;28;639;-73
2022/07/28 04:14:13;;;;;;;;;;;;;;;20.26;51.36;101688.00;1036544;28;635;-73
2022/07/28 04:15:06;;;;;;;;;;;;;;;20.24;51.77;101688.19;1037766;28;613;-73
2022/07/28 04:15:57;;;;;;;;;;;;;;;20.29;51.03;101687.72;1037085;28;697;-73
2022/07/28 04:16:47;;;;;;;;;;;;;;;20.31;51.06;101689.31;1037778;28;674;-72
2022/07/28 04:17:38;;;;;;;;;;;;;;;20.28;51.16;101689.59;1033491;28;634;-74
2022/07/28 04:18:33;;;;;;;;;;;;;;;20.23;51.52;101700.00;1031791;28;709;-73
2022/07/28 04:19:24;;;;;;;;;;;;;;;20.24;51.85;101695.44;1037802;28;623;-75
2022/07/28 04:20:15;;;;;;;;;;;;;;;20.25;51.42;101697.97;1036592;28;662;-72
2022/07/28 04:21:05;;;;;;;;;;;;;;;20.25;51.43;101686.28;1037512;28;1593;-73
2022/07/28 04:21:56;;;;;;;;;;;;;;;20.26;51.52;101694.28;1037202;28;663;-73
2022/07/28 04:22:46;;;;;;;;;;;;;;;20.28;51.37;101697.69;1037222;28;733;-72
2022/07/28 04:23:37;;;;;;;;;;;;;;;20.28;51.80;101692.28;1036587;28;1902;-74
2022/07/28 04:24:27;;;;;;;;;;;;;;;20.25;51.78;101689.00;1037173;28;681;-73
2022/07/28 04:25:18;;;;;;;;;;;;;;;20.27;51.87;101692.44;1036877;28;721;-73
2022/07/28 04:26:08;;;;;;;;;;;;;;;20.27;51.35;101692.44;1036510;28;650;-74
2022/07/28 04:26:58;;;;;;;;;;;;;;;20.25;51.79;101692.56;1036403;28;642;-73
2022/07/28 04:27:49;;;;;;;;;;;;;;;20.24;51.81;101695.44;1036834;28;643;-72